Time;durP1;ratioP1;P1;durP2;ratioP2;P2;SDS_P1;SDS_P2;PMS_P1;PMS_P2;Temp;Humidity;BMP_temperature;BMP_pressure;BME280_temperature;BME280_humidity;BME280_pressure;Samples;Min_cycle;Max_cycle;Signal;HPM_P1;HPM_P2
2021/11/06 05:01:09;;;;;;;25.58;10.40;;;;;;;10.00;100.00;95667.84;5852214;23;20454;-74
2021/11/06 05:03:34;;;;;;;28.58;9.75;;;;;;;10.03;100.00;95680.50;4978411;28;20039;-74
2021/11/06 05:06:00;;;;;;;19.85;10.82;;;;;;;10.13;100.00;95678.63;4971109;28;20042;-75
2021/11/06 05:08:25;;;;;;;17.48;9.65;;;;;;;10.10;100.00;95681.53;4969308;28;20069;-75
2021/11/06 05:10:50;;;;;;;19.20;9.57;;;;;;;10.09;100.00;95682.47;4962608;28;20046;-74
2021/11/06 05:13:16;;;;;;;24.70;9.90;;;;;;;10.22;100.00;95701.06;4986036;28;20031;-75
2021/11/06 05:15:41;;;;;;;25.25;10.65;;;;;;;10.36;100.00;95726.44;4968123;28;20037;-74
2021/11/06 05:18:09;;;;;;;20.50;10.63;;;;;;;10.52;100.00;95720.56;4985726;28;20031;-74
2021/11/06 05:20:34;;;;;;;21.55;11.02;;;;;;;10.54;100.00;95703.06;4954047;28;20471;-74
2021/11/06 05:23:00;;;;;;;21.95;10.98;;;;;;;10.64;100.00;95721.91;4943369;28;20039;-77
2021/11/06 05:25:25;;;;;;;21.20;10.70;;;;;;;10.74;100.00;95714.06;4968531;28;20034;-77
2021/11/06 05:27:51;;;;;;;36.40;13.90;;;;;;;10.79;100.00;95698.88;4953723;28;20551;-76
2021/11/06 05:30:16;;;;;;;30.58;14.68;;;;;;;10.86;100.00;95671.34;4951800;28;20027;-76
2021/11/06 05:32:42;;;;;;;40.95;22.75;;;;;;;10.91;100.00;95684.69;4968999;28;20038;-78
2021/11/06 05:35:08;;;;;;;41.30;21.83;;;;;;;11.19;100.00;95678.31;4936190;28;20033;-79
2021/11/06 05:37:34;;;;;;;35.15;19.35;;;;;;;11.18;100.00;95683.66;4937216;28;20034;-79
2021/11/06 05:39:59;;;;;;;29.02;15.50;;;;;;;11.42;100.00;95683.75;4952031;28;20496;-77
2021/11/06 05:42:25;;;;;;;26.90;14.85;;;;;;;11.53;100.00;95670.47;4969231;28;20034;-77
2021/11/06 05:44:50;;;;;;;27.08;14.63;;;;;;;11.54;100.00;95656.53;4952415;28;20089;-77
2021/11/06 05:47:16;;;;;;;29.88;14.98;;;;;;;11.65;100.00;95646.66;4968240;28;20034;-77
2021/11/06 05:49:41;;;;;;;31.65;15.60;;;;;;;11.52;100.00;95583.28;4963708;28;20101;-77
2021/11/06 05:52:07;;;;;;;21.08;14.02;;;;;;;11.67;100.00;95602.41;4961477;28;20035;-73
2021/11/06 05:54:33;;;;;;;28.75;13.85;;;;;;;11.63;100.00;95604.50;4964927;28;20435;-75
2021/11/06 05:56:58;;;;;;;26.88;13.38;;;;;;;11.79;100.00;95597.72;4947290;28;20034;-74
2021/11/06 05:59:23;;;;;;;27.90;15.73;;;;;;;12.09;100.00;95602.28;4967606;28;20343;-74
2021/11/06 06:01:49;;;;;;;37.65;17.30;;;;;;;12.69;98.55;95594.84;4966297;28;20534;-76
2021/11/06 06:04:14;;;;;;;31.20;17.38;;;;;;;12.38;98.29;95592.16;4951131;28;20508;-74
2021/11/06 06:06:40;;;;;;;26.98;14.43;;;;;;;12.54;99.08;95594.72;4950696;28;20037;-72
2021/11/06 06:09:06;;;;;;;26.08;16.55;;;;;;;12.63;98.58;95608.50;4935366;28;20081;-74
2021/11/06 06:11:31;;;;;;;26.85;15.18;;;;;;;12.43;99.45;95613.25;4965806;28;20047;-73
2021/11/06 06:13:57;;;;;;;22.50;14.95;;;;;;;12.49;100.00;95607.41;4966502;28;20030;-74
2021/11/06 06:16:22;;;;;;;21.50;14.15;;;;;;;12.92;98.95;95619.13;4968774;28;20042;-74
2021/11/06 06:18:48;;;;;;;23.67;16.83;;;;;;;13.18;97.80;95614.50;4950605;28;20038;-75
2021/11/06 06:21:14;;;;;;;31.60;18.25;;;;;;;13.09;97.55;95620.72;4936379;28;20042;-75
2021/11/06 06:23:40;;;;;;;25.60;18.83;;;;;;;13.09;99.34;95628.53;4934740;29;20027;-77
2021/11/06 06:26:05;;;;;;;31.67;19.27;;;;;;;12.92;99.76;95613.94;4931915;29;20098;-76
2021/11/06 06:28:30;;;;;;;32.05;21.50;;;;;;;12.67;100.00;95635.78;4933313;29;20019;-75
2021/11/06 06:30:56;;;;;;;26.77;17.40;;;;;;;13.26;100.00;95642.25;4947238;28;20062;-75
2021/11/06 06:33:21;;;;;;;27.42;17.95;;;;;;;13.30;98.37;95635.72;4946502;29;20098;-75
2021/11/06 06:35:47;;;;;;;33.92;19.42;;;;;;;13.16;99.26;95642.47;4947582;29;20019;-74
2021/11/06 06:38:12;;;;;;;27.98;18.38;;;;;;;13.66;97.43;95649.03;4949041;29;20035;-74
2021/11/06 06:40:38;;;;;;;28.80;18.75;;;;;;;13.83;96.22;95647.97;4947784;29;20031;-75
2021/11/06 06:43:03;;;;;;;31.85;18.75;;;;;;;13.69;97.17;95662.53;4932010;29;20058;-74
2021/11/06 06:45:29;;;;;;;30.63;19.90;;;;;;;13.96;96.80;95663.00;4933001;29;20539;-75
2021/11/06 06:47:54;;;;;;;28.25;20.25;;;;;;;13.86;97.17;95676.25;4932005;28;20032;-75
2021/11/06 06:50:20;;;;;;;27.85;20.00;;;;;;;13.71;98.55;95667.53;4967878;28;20027;-75
2021/11/06 06:52:47;;;;;;;26.92;19.38;;;;;;;13.65;98.90;95671.66;4950369;28;20051;-75
2021/11/06 06:55:12;;;;;;;27.55;20.20;;;;;;;13.72;98.77;95675.19;4951001;28;20039;-73
2021/11/06 06:57:38;;;;;;;32.05;20.42;;;;;;;13.55;100.00;95684.06;4950112;28;20023;-75
2021/11/06 07:00:08;;;;;;;31.58;21.23;;;;;;;13.66;100.00;95685.47;4965123;28;20470;-75
2021/11/06 07:02:33;;;;;;;29.60;19.75;;;;;;;13.72;98.89;95677.78;4962949;28;20129;-74
2021/11/06 07:04:59;;;;;;;30.10;21.27;;;;;;;13.19;100.00;95681.16;4966952;28;20067;-74
2021/11/06 07:07:25;;;;;;;35.72;20.90;;;;;;;13.51;100.00;95679.38;4967793;28;20031;-75
2021/11/06 07:09:52;;;;;;;28.05;19.83;;;;;;;13.92;98.65;95675.56;4965861;28;20105;-74
2021/11/06 07:12:17;;;;;;;24.42;20.40;;;;;;;13.53;98.87;95674.81;4963380;28;20046;-74
2021/11/06 07:14:43;;;;;;;27.40;19.67;;;;;;;13.81;99.17;95688.97;4950335;28;20411;-74
2021/11/06 07:17:08;;;;;;;32.85;24.13;;;;;;;13.87;98.96;95682.28;4968786;28;20031;-75
2021/11/06 07:19:34;;;;;;;34.55;21.08;;;;;;;13.92;99.13;95696.41;4962477;28;20050;-75
2021/11/06 07:22:00;;;;;;;28.10;18.92;;;;;;;14.10;98.17;95676.06;4967379;28;20046;-75
2021/11/06 07:24:27;;;;;;;28.25;20.75;;;;;;;14.25;97.66;95686.56;4951146;28;20038;-75
2021/11/06 07:26:53;;;;;;;29.70;21.60;;;;;;;14.86;95.07;95684.75;4949104;28;20026;-74
2021/11/06 07:29:18;;;;;;;29.10;21.15;;;;;;;15.58;90.47;95691.75;4947948;29;20501;-75
2021/11/06 07:31:44;;;;;;;23.77;19.38;;;;;;;16.21;87.27;95685.00;4943726;28;20412;-74
2021/11/06 07:34:09;;;;;;;28.92;20.05;;;;;;;16.73;84.52;95674.16;4947926;28;20066;-74
2021/11/06 07:36:35;;;;;;;26.05;18.65;;;;;;;16.76;83.62;95676.44;4933673;28;20054;-73
2021/11/06 07:39:00;;;;;;;21.98;18.23;;;;;;;16.71;83.50;95669.13;4966690;28;20050;-73
2021/11/06 07:41:26;;;;;;;27.83;19.17;;;;;;;15.72;85.42;95672.63;4950212;28;20508;-73
2021/11/06 07:43:53;;;;;;;23.70;18.23;;;;;;;15.82;87.38;95680.16;4948675;28;20026;-74
2021/11/06 07:46:18;;;;;;;21.08;18.60;;;;;;;15.69;87.99;95691.28;4936026;28;20496;-74
2021/11/06 07:48:44;;;;;;;23.92;19.52;;;;;;;15.43;88.25;95688.31;4942887;28;20027;-74
2021/11/06 07:51:10;;;;;;;21.90;17.45;;;;;;;15.86;88.19;95680.63;4967417;28;20038;-74
2021/11/06 07:53:35;;;;;;;25.05;18.73;;;;;;;15.50;89.26;95681.41;4930204;28;20023;-74
2021/11/06 07:56:02;;;;;;;24.95;18.95;;;;;;;15.42;88.18;95667.59;4967136;28;20865;-74
2021/11/06 07:58:28;;;;;;;28.02;19.42;;;;;;;15.48;88.52;95670.31;4952650;28;20022;-73
2021/11/06 08:00:53;;;;;;;25.83;19.55;;;;;;;15.10;90.03;95666.19;4903788;28;20046;-73
2021/11/06 08:03:19;;;;;;;32.72;22.27;;;;;;;14.36;94.02;95661.91;4923485;29;20583;-76
2021/11/06 08:05:44;;;;;;;32.75;21.60;;;;;;;14.83;92.88;95656.41;4947514;29;20107;-76
2021/11/06 08:08:10;;;;;;;32.90;22.17;;;;;;;14.52;93.86;95661.75;4931737;29;20042;-75
2021/11/06 08:10:36;;;;;;;31.02;21.33;;;;;;;14.53;95.62;95651.16;4940768;29;20490;-76
2021/11/06 08:13:03;;;;;;;31.63;21.20;;;;;;;14.52;94.72;95652.13;4947492;29;20433;-76
2021/11/06 08:15:29;;;;;;;29.50;20.58;;;;;;;15.05;92.94;95645.88;4914471;29;20039;-76
2021/11/06 08:17:54;;;;;;;30.85;20.92;;;;;;;14.71;92.66;95658.63;4926555;28;20530;-75
2021/11/06 08:20:22;;;;;;;22.80;18.25;;;;;;;15.32;91.46;95657.44;4931846;29;20043;-76
2021/11/06 08:22:48;;;;;;;29.33;20.58;;;;;;;15.38;89.64;95655.94;4917821;29;20544;-76
2021/11/06 08:25:16;;;;;;;26.85;19.55;;;;;;;15.78;87.77;95668.47;4918269;29;20118;-76
2021/11/06 08:27:43;;;;;;;27.98;18.73;;;;;;;16.35;85.34;95676.25;4907394;29;20023;-76
2021/11/06 08:30:09;;;;;;;29.48;17.92;;;;;;;16.66;84.08;95683.78;4934800;29;20039;-73
2021/11/06 08:32:35;;;;;;;29.58;17.90;;;;;;;16.88;82.64;95685.34;4948460;29;20023;-73
2021/11/06 08:35:00;;;;;;;24.98;17.65;;;;;;;16.81;80.73;95684.50;4950281;29;20028;-74
2021/11/06 08:37:26;;;;;;;21.58;16.73;;;;;;;17.63;78.79;95681.94;4914900;29;20032;-75
2021/11/06 08:39:51;;;;;;;23.27;17.83;;;;;;;18.29;76.18;95683.75;4940054;29;20023;-75
2021/11/06 08:42:17;;;;;;;22.30;17.98;;;;;;;19.24;72.88;95690.38;4931527;29;20027;-75
2021/11/06 08:44:42;;;;;;;19.48;16.52;;;;;;;19.84;69.28;95697.09;4948534;29;20034;-75
2021/11/06 08:47:08;;;;;;;24.50;17.05;;;;;;;19.84;68.66;95689.19;4949844;29;20019;-75
2021/11/06 08:49:33;;;;;;;23.00;17.02;;;;;;;19.75;68.91;95695.69;4949576;28;20031;-74
2021/11/06 08:51:59;;;;;;;20.65;16.35;;;;;;;18.60;71.65;95704.16;4933818;28;20046;-75
2021/11/06 08:54:25;;;;;;;27.90;16.35;;;;;;;17.97;74.79;95687.09;4948421;29;20035;-75
2021/11/06 08:56:50;;;;;;;21.45;17.45;;;;;;;17.62;76.00;95686.41;4933777;29;20057;-74
2021/11/06 08:59:20;;;;;;;21.35;17.10;;;;;;;17.65;76.24;95687.81;4927276;29;20039;-74
2021/11/06 09:01:46;;;;;;;21.33;15.90;;;;;;;18.76;72.92;95668.81;4954724;28;20082;-75
2021/11/06 09:04:12;;;;;;;23.25;16.10;;;;;;;19.43;68.62;95686.91;4947002;28;20035;-75
2021/11/06 09:06:38;;;;;;;25.20;16.10;;;;;;;21.35;61.92;95678.31;4937968;28;20038;-75
2021/11/06 09:09:05;;;;;;;23.58;15.15;;;;;;;21.76;60.45;95680.31;4928934;29;20082;-74
2021/11/06 09:11:31;;;;;;;24.65;16.17;;;;;;;19.81;63.51;95682.50;4915043;29;20436;-75
2021/11/06 09:13:56;;;;;;;18.45;15.27;;;;;;;19.49;68.66;95675.56;4949140;28;20035;-75
2021/11/06 09:16:22;;;;;;;19.80;15.75;;;;;;;18.50;71.16;95674.06;4946848;29;20043;-75
2021/11/06 09:18:48;;;;;;;21.75;16.50;;;;;;;18.03;74.61;95669.75;4945609;29;20046;-75
2021/11/06 09:21:19;;;;;;;20.50;15.82;;;;;;;18.09;73.53;95674.22;4919730;29;20563;-75
2021/11/06 09:23:48;;;;;;;25.73;17.73;;;;;;;17.15;76.49;95667.97;4948711;29;20452;-75
2021/11/06 09:26:14;;;;;;;28.20;17.13;;;;;;;17.52;77.07;95677.25;4934502;29;20034;-76
2021/11/06 09:28:42;;;;;;;22.75;16.98;;;;;;;17.51;76.11;95663.34;4947900;28;20027;-75
2021/11/06 09:31:11;;;;;;;20.95;15.95;;;;;;;17.15;78.58;95666.19;4945550;28;20441;-76
2021/11/06 09:33:38;;;;;;;26.08;16.13;;;;;;;18.46;73.99;95675.47;4932639;29;20031;-75
2021/11/06 09:36:04;;;;;;;20.17;16.05;;;;;;;18.52;74.24;95674.69;4933992;29;20674;-75
2021/11/06 09:38:29;;;;;;;19.75;15.38;;;;;;;18.84;71.90;95671.25;4933472;29;20066;-75
2021/11/06 09:41:01;;;;;;;20.52;15.38;;;;;;;19.50;68.91;95673.75;4931111;29;20027;-75
2021/11/06 09:43:27;;;;;;;16.98;14.73;;;;;;;19.76;68.18;95661.31;4917762;29;20043;-75
2021/11/06 09:45:54;;;;;;;29.20;16.55;;;;;;;19.22;68.55;95668.75;4913775;29;20038;-75
2021/11/06 09:48:22;;;;;;;19.38;15.20;;;;;;;18.84;71.26;95668.63;4900279;29;20621;-74
2021/11/06 09:50:48;;;;;;;19.23;14.77;;;;;;;19.22;70.53;95679.25;4923928;29;20074;-74
2021/11/06 09:53:13;;;;;;;18.17;13.73;;;;;;;20.03;67.22;95664.59;4914450;29;20513;-75
2021/11/06 09:55:38;;;;;;;23.92;15.73;;;;;;;19.82;68.18;95667.53;4910706;29;20118;-74
2021/11/06 09:58:04;;;;;;;22.05;16.17;;;;;;;18.66;72.62;95658.75;4932888;29;20090;-75
2021/11/06 10:00:29;;;;;;;23.35;14.65;;;;;;;18.52;73.22;95661.59;4930935;29;20039;-75
2021/11/06 10:02:56;;;;;;;19.75;16.80;;;;;;;18.11;74.04;95661.72;4931776;29;20531;-74
2021/11/06 10:05:51;;;;;;;24.27;16.38;;;;;;;18.43;73.99;95666.16;4933477;29;20023;-74
2021/11/06 10:08:36;;;;;;;22.75;16.48;;;;;;;18.36;73.62;95666.19;4948438;29;20054;-74
2021/11/06 10:11:10;;;;;;;19.70;15.38;;;;;;;18.60;73.36;95658.75;4926754;29;20034;-75
2021/11/06 10:13:52;;;;;;;27.55;14.88;;;;;;;18.88;73.52;95660.13;4915086;29;20043;-75
2021/11/06 10:16:32;;;;;;;20.85;15.45;;;;;;;18.98;71.30;95654.47;4929981;28;20028;-75
2021/11/06 10:19:12;;;;;;;23.05;15.85;;;;;;;18.65;71.58;95657.16;4927538;29;20171;-75
2021/11/06 10:21:39;;;;;;;22.83;15.40;;;;;;;18.46;74.23;95650.06;4929863;29;20034;-74
2021/11/06 10:24:05;;;;;;;18.92;14.10;;;;;;;18.64;71.78;95641.59;4913192;29;20453;-74
2021/11/06 10:26:31;;;;;;;22.25;15.43;;;;;;;18.83;71.91;95648.63;4914557;29;20024;-74
2021/11/06 10:29:14;;;;;;;15.70;14.00;;;;;;;18.94;72.57;95633.06;4931607;28;20094;-75
2021/11/06 10:31:59;;;;;;;19.73;14.57;;;;;;;19.01;71.70;95629.63;4931296;29;20591;-74
2021/11/06 10:34:26;;;;;;;17.52;13.60;;;;;;;19.29;70.59;95635.41;4943087;28;20043;-74
2021/11/06 10:36:58;;;;;;;66.10;16.17;;;;;;;19.19;72.36;95635.03;4947817;28;20034;-75
2021/11/06 10:39:23;;;;;;;17.80;13.13;;;;;;;18.71;72.11;95629.28;4948609;29;20065;-74
2021/11/06 10:41:49;;;;;;;22.63;14.80;;;;;;;19.19;71.23;95633.22;4913195;29;20031;-75
2021/11/06 10:44:19;;;;;;;22.50;14.70;;;;;;;19.52;70.12;95624.44;4946589;28;20563;-75
2021/11/06 10:46:50;;;;;;;18.13;13.70;;;;;;;19.32;70.20;95624.47;4942287;29;20027;-75
2021/11/06 10:49:32;;;;;;;22.35;13.48;;;;;;;19.39;71.11;95623.41;4925775;29;20032;-75
2021/11/06 10:52:00;;;;;;;21.75;13.25;;;;;;;19.62;68.77;95632.69;4933802;29;20027;-75
2021/11/06 10:54:25;;;;;;;14.23;12.57;;;;;;;19.76;69.12;95636.84;4949936;28;20032;-75
2021/11/06 10:56:54;;;;;;;19.50;12.90;;;;;;;19.77;69.67;95633.19;4922732;29;20111;-76
2021/11/06 10:59:22;;;;;;;20.85;13.43;;;;;;;19.72;68.69;95638.25;4928112;29;20083;-75
2021/11/06 11:01:55;;;;;;;18.05;12.18;;;;;;;19.79;68.50;95634.59;4943171;29;20122;-75
2021/11/06 11:04:22;;;;;;;21.02;12.63;;;;;;;19.93;68.15;95623.00;4942134;29;20078;-75
2021/11/06 11:06:53;;;;;;;27.33;14.07;;;;;;;19.56;70.23;95628.22;4913511;29;20606;-76
2021/11/06 11:09:25;;;;;;;18.08;13.65;;;;;;;19.90;68.42;95631.31;4913945;29;20444;-75
2021/11/06 11:11:51;;;;;;;31.83;14.20;;;;;;;19.53;70.45;95626.03;4927724;29;20043;-75
2021/11/06 11:14:22;;;;;;;18.75;14.00;;;;;;;19.77;69.45;95634.00;4913937;29;20035;-75
2021/11/06 11:16:51;;;;;;;19.27;13.75;;;;;;;19.29;70.41;95619.63;4916442;28;20033;-75
2021/11/06 11:19:19;;;;;;;24.73;13.38;;;;;;;19.53;69.85;95618.94;4947904;28;20130;-75
2021/11/06 11:21:45;;;;;;;23.73;13.50;;;;;;;19.00;70.97;95612.25;4932075;29;20562;-75
2021/11/06 11:24:16;;;;;;;17.08;12.00;;;;;;;19.45;69.38;95614.75;4897857;29;20521;-75
2021/11/06 11:26:51;;;;;;;19.05;13.35;;;;;;;19.33;70.63;95611.13;4914180;29;20158;-75
2021/11/06 11:29:23;;;;;;;15.52;13.35;;;;;;;19.35;71.30;95613.56;4920362;29;20511;-75
2021/11/06 11:31:49;;;;;;;18.60;13.00;;;;;;;19.34;70.55;95604.03;4950460;29;20038;-75
2021/11/06 11:34:15;;;;;;;18.52;13.77;;;;;;;19.26;70.68;95604.28;4938587;29;20028;-75
2021/11/06 11:36:44;;;;;;;18.08;12.75;;;;;;;19.47;71.35;95606.66;4936696;29;20038;-75
2021/11/06 11:39:15;;;;;;;23.55;13.50;;;;;;;19.69;71.16;95607.13;4946960;29;20059;-75
2021/11/06 11:41:46;;;;;;;18.30;14.60;;;;;;;19.33;71.58;95608.50;4935776;29;20035;-75
2021/11/06 11:44:30;;;;;;;19.42;14.70;;;;;;;19.57;71.38;95595.69;4953633;28;20023;-75
2021/11/06 11:47:03;;;;;;;23.30;14.27;;;;;;;19.63;70.42;95594.84;4947003;28;20028;-75
2021/11/06 11:49:33;;;;;;;17.10;12.57;;;;;;;19.72;70.73;95601.47;4917521;29;20427;-75
2021/11/06 11:52:21;;;;;;;19.10;14.38;;;;;;;19.36;70.52;95599.41;4950562;29;20121;-75
2021/11/06 11:55:09;;;;;;;19.58;13.02;;;;;;;18.85;72.47;95604.59;4950500;29;20031;-75
2021/11/06 11:57:36;;;;;;;21.38;13.32;;;;;;;18.98;72.94;95594.06;4947641;29;20045;-74
2021/11/06 12:00:17;;;;;;;20.90;13.52;;;;;;;19.22;72.32;95598.66;4928140;29;20028;-75
2021/11/06 12:02:52;;;;;;;24.60;14.02;;;;;;;19.11;71.93;95596.66;4949171;29;20048;-75
2021/11/06 12:05:23;;;;;;;18.27;12.73;;;;;;;19.26;72.81;95599.84;4949500;29;20090;-75
2021/11/06 12:08:14;;;;;;;16.83;12.38;;;;;;;19.38;71.19;95592.09;4951405;29;20027;-75
2021/11/06 12:10:42;;;;;;;19.20;12.80;;;;;;;19.55;70.66;95587.22;4951797;29;20027;-75
2021/11/06 12:13:26;;;;;;;21.50;12.07;;;;;;;19.41;70.15;95582.03;4946517;29;20110;-75
2021/11/06 12:16:02;;;;;;;19.48;11.55;;;;;;;19.67;69.07;95581.06;4933775;29;20028;-75
2021/11/06 12:18:34;;;;;;;20.85;11.88;;;;;;;19.66;68.46;95591.78;4952359;28;20035;-75
2021/11/06 12:21:15;;;;;;;21.35;11.23;;;;;;;19.15;70.11;95597.03;4946196;28;20536;-75
2021/11/06 12:23:56;;;;;;;21.17;12.82;;;;;;;19.31;69.52;95581.63;4952775;29;20058;-75
2021/11/06 12:26:25;;;;;;;22.38;15.45;;;;;;;19.09;71.14;95590.00;4925202;29;20032;-75
2021/11/06 12:29:06;;;;;;;24.80;16.60;;;;;;;19.23;71.42;95579.22;4931535;29;20489;-75
2021/11/06 12:31:38;;;;;;;22.17;12.82;;;;;;;19.03;71.05;95578.50;4946609;29;20118;-75
2021/11/06 12:34:04;;;;;;;41.80;13.10;;;;;;;19.00;72.18;95578.94;4948453;29;20027;-75
2021/11/06 12:36:30;;;;;;;24.02;13.18;;;;;;;19.24;71.43;95580.84;4948809;28;20516;-75
2021/11/06 12:38:56;;;;;;;15.88;12.27;;;;;;;19.15;71.74;95573.41;4929291;29;20031;-75
2021/11/06 12:41:29;;;;;;;18.77;12.60;;;;;;;19.05;72.73;95570.41;4944784;29;20035;-74
2021/11/06 12:43:54;;;;;;;15.88;13.00;;;;;;;19.07;71.65;95573.66;4910347;29;20034;-73
2021/11/06 12:46:25;;;;;;;23.13;13.32;;;;;;;18.71;72.57;95579.41;4926458;29;20426;-74
2021/11/06 12:48:51;;;;;;;18.00;14.55;;;;;;;18.40;74.28;95577.38;4948615;28;20075;-75
2021/11/06 12:51:18;;;;;;;19.77;13.98;;;;;;;18.38;74.12;95584.66;4932488;29;20524;-75
2021/11/06 12:53:48;;;;;;;19.25;13.35;;;;;;;18.48;74.45;95582.44;4947566;28;20098;-75
2021/11/06 12:56:19;;;;;;;23.20;13.10;;;;;;;18.80;72.92;95567.66;4945441;29;20032;-74
2021/11/06 12:58:59;;;;;;;21.55;13.18;;;;;;;18.69;73.31;95573.53;4949045;28;20067;-74
2021/11/06 13:01:27;;;;;;;22.52;13.93;;;;;;;18.66;73.53;95576.56;4947400;29;20532;-74
2021/11/06 13:03:53;;;;;;;26.63;13.32;;;;;;;18.68;73.03;95585.06;4946185;28;20027;-75
2021/11/06 13:06:37;;;;;;;57.50;30.13;;;;;;;18.66;73.50;95569.50;4932337;29;20094;-75
2021/11/06 13:09:15;;;;;;;26.30;14.05;;;;;;;18.58;74.12;95563.69;4939046;28;20114;-75
2021/11/06 13:12:12;;;;;;;19.48;13.48;;;;;;;18.64;73.70;95582.03;4949521;29;20061;-74
2021/11/06 13:14:51;;;;;;;19.00;13.05;;;;;;;18.67;73.47;95589.50;4942294;29;20547;-74
2021/11/06 13:17:20;;;;;;;18.23;12.95;;;;;;;18.65;74.50;95574.97;4931351;29;20023;-74
2021/11/06 13:19:49;;;;;;;17.33;13.65;;;;;;;18.40;75.30;95580.81;4950405;29;20031;-76
2021/11/06 13:22:45;;;;;;;103.80;56.55;;;;;;;18.44;74.70;95576.78;4948368;29;20039;-74
2021/11/06 13:25:21;;;;;;;52.70;32.03;;;;;;;18.36;75.19;95571.75;4931374;29;20699;-74
2021/11/06 13:28:08;;;;;;;50.15;27.88;;;;;;;18.26;76.44;95570.56;4950126;28;20035;-74
2021/11/06 13:30:37;;;;;;;37.95;19.27;;;;;;;18.25;76.55;95561.88;4948452;29;20042;-74
2021/11/06 13:33:06;;;;;;;20.08;14.02;;;;;;;18.08;76.90;95563.28;4949173;29;20468;-74
2021/11/06 13:35:55;;;;;;;21.00;12.30;;;;;;;18.28;75.52;95571.97;4949036;28;20039;-75
2021/11/06 13:38:32;;;;;;;21.27;13.32;;;;;;;18.19;76.17;95562.69;4937931;29;20047;-74
2021/11/06 13:40:57;;;;;;;18.25;13.10;;;;;;;18.22;76.23;95562.28;4948497;28;20031;-74
2021/11/06 13:43:31;;;;;;;23.70;13.55;;;;;;;18.06;77.78;95557.44;4945830;28;20039;-75
2021/11/06 13:46:16;;;;;;;20.38;12.88;;;;;;;17.99;77.56;95567.13;4937405;29;20053;-75
2021/11/06 13:49:14;;;;;;;17.90;12.70;;;;;;;17.92;77.61;95566.28;4945817;29;20091;-74
2021/11/06 13:51:41;;;;;;;21.23;12.50;;;;;;;17.88;78.33;95576.38;4946304;28;20038;-74
2021/11/06 13:54:10;;;;;;;19.20;11.95;;;;;;;17.95;78.32;95565.88;4946516;29;20042;-74
2021/11/06 13:56:52;;;;;;;17.10;12.40;;;;;;;18.08;77.47;95568.53;4943979;29;20115;-73
2021/11/06 13:59:19;;;;;;;17.60;12.10;;;;;;;17.93;77.68;95554.81;4931989;29;20171;-75
2021/11/06 14:01:48;;;;;;;22.75;13.05;;;;;;;17.84;78.44;95577.00;4930406;29;20044;-75
2021/11/06 14:04:14;;;;;;;34.22;13.80;;;;;;;17.80;78.18;95573.16;4933003;29;20042;-75
2021/11/06 14:06:46;;;;;;;27.65;13.02;;;;;;;17.79;78.25;95568.91;4949014;29;20031;-75
2021/11/06 14:09:12;;;;;;;18.27;12.77;;;;;;;17.67;79.14;95578.34;4948291;28;20106;-74
2021/11/06 14:11:52;;;;;;;16.52;13.77;;;;;;;17.53;79.83;95569.63;4949448;28;20042;-74
2021/11/06 14:14:21;;;;;;;18.25;12.82;;;;;;;17.35;80.44;95556.28;4944555;28;20031;-74
2021/11/06 14:17:06;;;;;;;20.10;13.43;;;;;;;17.52;79.68;95575.06;4933755;28;20047;-74
2021/11/06 14:19:44;;;;;;;18.80;13.10;;;;;;;17.43;80.18;95568.41;4933150;28;20023;-74
2021/11/06 14:22:10;;;;;;;23.35;13.82;;;;;;;17.38;80.10;95567.19;4949380;28;20058;-75
2021/11/06 14:24:35;;;;;;;15.80;12.48;;;;;;;17.27;80.50;95569.56;4964996;28;20159;-74
2021/11/06 14:27:01;;;;;;;22.50;12.60;;;;;;;17.23;80.65;95573.59;4932111;29;20030;-75
2021/11/06 14:29:27;;;;;;;20.95;12.43;;;;;;;17.12;81.09;95569.72;4929731;29;20546;-74
2021/11/06 14:31:53;;;;;;;17.75;12.40;;;;;;;17.04;81.30;95572.50;4917634;29;20035;-74
2021/11/06 14:34:31;;;;;;;15.27;11.80;;;;;;;16.87;81.67;95568.59;4940421;29;20031;-74
2021/11/06 14:37:03;;;;;;;23.63;16.08;;;;;;;16.86;82.60;95573.00;4916192;29;20036;-74
2021/11/06 14:39:35;;;;;;;46.38;26.58;;;;;;;16.73;83.90;95578.19;4937241;29;20038;-74
2021/11/06 14:42:02;;;;;;;28.10;14.63;;;;;;;16.35;86.21;95584.75;4915329;29;20115;-74
2021/11/06 14:44:36;;;;;;;19.98;12.57;;;;;;;16.39;86.97;95590.41;4914196;29;20118;-74
2021/11/06 14:47:22;;;;;;;21.40;13.13;;;;;;;16.39;86.59;95593.84;4931190;29;20035;-74
2021/11/06 14:49:49;;;;;;;27.70;16.73;;;;;;;16.14;87.84;95592.63;4949376;29;20042;-74
2021/11/06 14:52:29;;;;;;;27.55;16.95;;;;;;;15.95;89.16;95596.69;4947785;28;20023;-75
2021/11/06 14:54:58;;;;;;;;;;;;;;;15.90;89.36;95600.84;4929927;29;20043;-74
2021/11/06 14:57:30;;;;;;;39.28;22.08;;;;;;;15.78;90.79;95597.94;4948941;28;19914;-74
2021/11/06 15:00:18;;;;;;;37.70;22.88;;;;;;;15.71;91.68;95605.72;4948648;28;20035;-74
2021/11/06 15:02:57;;;;;;;48.03;27.30;;;;;;;15.57;92.37;95608.38;4929676;29;20682;-74
2021/11/06 15:05:34;;;;;;;67.85;50.47;;;;;;;15.46;93.44;95614.84;4911225;29;20058;-74
2021/11/06 15:08:04;;;;;;;225.07;173.75;;;;;;;15.25;94.67;95597.34;4929360;29;20123;-74
2021/11/06 15:10:30;;;;;;;;;;;;;;;15.16;95.13;95611.50;4917494;29;20126;-74
2021/11/06 15:12:55;;;;;;;60.45;33.42;;;;;;;15.03;95.30;95611.31;4946548;29;20010;-73
2021/11/06 15:15:21;;;;;;;36.03;20.25;;;;;;;14.94;95.83;95614.22;4931306;29;20022;-74
2021/11/06 15:18:01;;;;;;;41.65;23.88;;;;;;;14.73;96.41;95607.94;4930288;29;20035;-74
2021/11/06 15:20:27;;;;;;;55.67;35.60;;;;;;;14.69;97.18;95626.72;4947097;29;20118;-74
2021/11/06 15:22:55;;;;;;;77.10;55.33;;;;;;;14.38;98.89;95623.44;4929695;29;20043;-73
2021/11/06 15:25:20;;;;;;;38.30;25.15;;;;;;;14.38;98.45;95613.03;4931447;29;20419;-74
2021/11/06 15:27:46;;;;;;;44.72;30.27;;;;;;;14.37;98.43;95624.44;4926761;29;20027;-74
2021/11/06 15:30:12;;;;;;;49.47;36.65;;;;;;;14.32;98.77;95630.13;4924961;29;20042;-74
2021/11/06 15:32:38;;;;;;;29.75;23.52;;;;;;;14.23;97.87;95624.19;4932510;28;20039;-75
2021/11/06 15:35:04;;;;;;;30.20;21.73;;;;;;;14.12;98.52;95635.03;4917714;29;20497;-74
2021/11/06 15:37:30;;;;;;;45.65;32.25;;;;;;;14.09;98.32;95640.59;4950131;28;20034;-74
2021/11/06 15:39:55;;;;;;;55.78;37.13;;;;;;;13.97;98.75;95625.53;4942956;29;20036;-74
2021/11/06 15:42:21;;;;;;;44.08;26.48;;;;;;;13.92;99.04;95630.47;4943712;28;20031;-73
2021/11/06 15:44:46;;;;;;;29.08;21.67;;;;;;;13.81;99.07;95636.88;4941829;29;20406;-73
2021/11/06 15:47:12;;;;;;;29.02;18.63;;;;;;;13.63;99.92;95633.75;4943910;29;20070;-73
2021/11/06 15:49:38;;;;;;;25.55;13.90;;;;;;;13.50;100.00;95633.53;4926179;29;20039;-73
2021/11/06 15:52:07;;;;;;;26.08;14.10;;;;;;;13.39;100.00;95642.50;4931775;28;20039;-74
2021/11/06 15:54:33;;;;;;;20.65;17.00;;;;;;;13.14;100.00;95639.22;4958781;28;20474;-76
2021/11/06 15:56:58;;;;;;;23.38;15.55;;;;;;;13.11;100.00;95636.97;4911638;29;20039;-76
2021/11/06 15:59:24;;;;;;;18.60;13.50;;;;;;;13.22;100.00;95640.19;4943331;28;20035;-75
2021/11/06 16:01:49;;;;;;;37.22;15.35;;;;;;;13.19;100.00;95652.56;4944647;28;20078;-73
2021/11/06 16:04:15;;;;;;;29.15;24.67;;;;;;;13.31;100.00;95668.59;4914045;29;20034;-73
2021/11/06 16:06:40;;;;;;;28.10;20.95;;;;;;;13.38;100.00;95666.13;4942004;29;20043;-73
2021/11/06 16:09:07;;;;;;;22.75;16.70;;;;;;;13.33;100.00;95660.59;4946502;28;20050;-73
2021/11/06 16:11:33;;;;;;;24.90;15.05;;;;;;;13.18;100.00;95657.91;4933331;29;20114;-76
2021/11/06 16:13:59;;;;;;;23.63;13.32;;;;;;;13.09;100.00;95662.34;4917847;29;20027;-74
2021/11/06 16:16:26;;;;;;;19.13;13.35;;;;;;;12.93;100.00;95654.56;4949875;28;20058;-74
2021/11/06 16:18:54;;;;;;;26.27;16.92;;;;;;;12.89;100.00;95663.66;4915503;29;20031;-74
2021/11/06 16:21:22;;;;;;;27.63;21.00;;;;;;;12.82;100.00;95669.69;4947428;29;20440;-73
2021/11/06 16:23:50;;;;;;;34.05;21.05;;;;;;;12.75;100.00;95671.34;4928460;29;20094;-73
2021/11/06 16:26:16;;;;;;;38.55;27.48;;;;;;;12.81;100.00;95678.50;4944534;29;20043;-73